Time;durP1;ratioP1;P1;durP2;ratioP2;P2;SDS_P1;SDS_P2;PMS_P1;PMS_P2;Temp;Humidity;BMP_temperature;BMP_pressure;BME280_temperature;BME280_humidity;BME280_pressure;Samples;Min_cycle;Max_cycle;Signal;HPM_P1;HPM_P2
2024/04/12 00:01:48;;;;;;;21.85;7.97;;;;;;;15.56;91.17;101312.91;5378607;26;20465;-69
2024/04/12 00:04:16;;;;;;;17.20;7.22;;;;;;;15.58;91.63;101319.06;5378464;26;20063;-68
2024/04/12 00:06:52;;;;;;;22.48;7.05;;;;;;;15.71;91.05;101322.91;5378368;26;20036;-71
2024/04/12 00:09:18;;;;;;;18.80;6.90;;;;;;;15.72;91.18;101324.66;5378636;26;20022;-71
2024/04/12 00:11:48;;;;;;;10.38;6.75;;;;;;;15.68;92.93;101325.41;5378827;26;20014;-69
2024/04/12 00:14:15;;;;;;;15.20;6.90;;;;;;;15.64;93.29;101314.03;5378035;26;20008;-71
2024/04/12 00:16:43;;;;;;;14.40;7.22;;;;;;;15.57;92.02;101303.41;5377754;26;20111;-68
2024/04/12 00:19:12;;;;;;;16.92;6.90;;;;;;;15.68;91.55;101315.00;5378635;26;20486;-69
2024/04/12 00:21:41;;;;;;;20.15;7.00;;;;;;;15.74;90.86;101312.59;5379952;26;19996;-70
2024/04/12 00:24:11;;;;;;;10.98;6.53;;;;;;;15.57;90.89;101270.44;5381494;26;19997;-71
2024/04/12 00:26:40;;;;;;;10.45;6.60;;;;;;;15.77;90.19;101314.41;5381139;26;20000;-71
2024/04/12 00:29:36;;;;;;;17.73;7.30;;;;;;;15.74;89.96;101315.19;5379890;26;20015;-76
2024/04/12 00:32:03;;;;;;;13.10;6.68;;;;;;;15.68;90.75;101326.28;5381044;26;19996;-69
2024/04/12 00:34:39;;;;;;;12.38;6.90;;;;;;;15.25;91.06;101274.69;5379504;26;20000;-71
2024/04/12 00:37:13;;;;;;;9.82;6.68;;;;;;;15.29;90.31;101298.25;5380773;26;20011;-72
2024/04/12 00:39:39;;;;;;;10.23;6.70;;;;;;;15.37;89.11;101296.72;5380123;26;20008;-69
2024/04/12 00:42:09;;;;;;;12.32;6.78;;;;;;;14.99;89.53;101249.63;5381073;26;20008;-72
2024/04/12 00:44:42;;;;;;;15.40;6.45;;;;;;;15.16;89.09;101288.28;5380946;26;20449;-73
2024/04/12 00:47:15;;;;;;;12.80;7.00;;;;;;;15.34;89.48;101319.22;5381128;26;20463;-68
2024/04/12 00:49:49;;;;;;;10.70;6.60;;;;;;;15.14;89.80;101289.94;5380673;26;20095;-69
2024/04/12 00:52:28;;;;;;;10.48;6.63;;;;;;;15.22;89.60;101301.47;5381027;26;20004;-71
2024/04/12 00:55:01;;;;;;;13.18;6.85;;;;;;;15.27;88.20;101314.63;5381565;26;20008;-68
2024/04/12 00:57:27;;;;;;;9.70;6.65;;;;;;;15.20;88.16;101297.94;5379537;26;20000;-69
2024/04/12 00:59:52;;;;;;;10.90;6.70;;;;;;;15.28;88.36;101322.47;5380591;26;20390;-68
2024/04/12 01:02:22;;;;;;;8.80;6.30;;;;;;;15.04;89.70;101319.97;5380891;26;20008;-69
2024/04/12 01:04:49;;;;;;;8.93;6.43;;;;;;;15.00;90.57;101313.81;5378917;26;20001;-69
2024/04/12 01:07:18;;;;;;;15.60;6.68;;;;;;;15.01;90.71;101302.56;5380643;26;20000;-68
2024/04/12 01:09:44;;;;;;;12.60;7.30;;;;;;;14.93;90.03;101303.13;5379150;26;20000;-72
2024/04/12 01:12:16;;;;;;;9.88;6.60;;;;;;;15.07;89.54;101327.88;5378697;26;20004;-71
2024/04/12 01:14:45;;;;;;;12.80;6.57;;;;;;;14.99;88.51;101304.25;5380710;26;20008;-69
2024/04/12 01:17:10;;;;;;;14.15;6.70;;;;;;;15.11;88.96;101326.28;5380313;26;20344;-67
2024/04/12 01:19:38;;;;;;;12.88;6.72;;;;;;;14.82;88.23;101274.22;5378852;26;20000;-70
2024/04/12 01:22:04;;;;;;;11.23;7.68;;;;;;;14.91;89.28;101302.22;5380372;26;20004;-76
2024/04/12 01:24:32;;;;;;;13.35;7.30;;;;;;;14.89;89.42;101328.16;5369548;26;20012;-69
2024/04/12 01:26:58;;;;;;;11.63;6.65;;;;;;;14.82;88.86;101321.00;5380286;26;20323;-70
2024/04/12 01:29:24;;;;;;;12.07;7.45;;;;;;;14.75;90.04;101338.09;5380081;26;20047;-69
2024/04/12 01:31:53;;;;;;;15.07;6.78;;;;;;;14.37;90.26;101312.53;5380017;26;20000;-69
2024/04/12 01:34:19;;;;;;;9.25;6.28;;;;;;;14.15;89.37;101276.25;5380218;26;20342;-69
2024/04/12 01:36:45;;;;;;;11.40;6.45;;;;;;;14.12;88.92;101338.44;5380291;26;20000;-69
2024/04/12 01:39:11;;;;;;;8.77;6.60;;;;;;;13.79;88.43;101310.44;5379818;26;20069;-69
2024/04/12 01:41:38;;;;;;;10.65;6.57;;;;;;;13.79;88.56;101332.06;5380170;26;20416;-70
2024/04/12 01:44:06;;;;;;;12.52;7.38;;;;;;;13.46;88.58;101300.53;5378411;26;20008;-75
2024/04/12 01:46:34;;;;;;;10.80;7.03;;;;;;;13.46;89.73;101348.13;5371018;26;20005;-69
2024/04/12 01:49:01;;;;;;;13.23;7.40;;;;;;;13.38;90.54;101327.09;5376110;26;20004;-70
2024/04/12 01:51:30;;;;;;;11.10;6.90;;;;;;;13.38;90.21;101311.53;5380212;26;20062;-69
2024/04/12 01:53:57;;;;;;;12.95;7.30;;;;;;;13.60;90.41;101330.50;5379713;26;20018;-69
2024/04/12 01:56:23;;;;;;;11.38;7.25;;;;;;;13.21;90.11;101271.06;5380189;26;20027;-69
2024/04/12 01:58:51;;;;;;;14.90;7.45;;;;;;;13.31;90.54;101301.69;5379301;26;20517;-69
2024/04/12 02:01:18;;;;;;;24.92;8.60;;;;;;;13.48;90.06;101330.03;5379827;26;20091;-69
2024/04/12 02:03:44;;;;;;;14.15;7.57;;;;;;;13.30;90.07;101302.50;5376707;26;20004;-70
2024/04/12 02:06:15;;;;;;;13.43;7.57;;;;;;;13.36;90.51;101327.81;5379935;26;20008;-71
2024/04/12 02:08:41;;;;;;;15.70;6.78;;;;;;;13.34;89.81;101306.13;5380051;26;20322;-68
2024/04/12 02:11:07;;;;;;;16.02;7.18;;;;;;;13.47;89.51;101331.75;5379730;26;20004;-72
2024/04/12 02:13:36;;;;;;;10.70;6.93;;;;;;;13.55;89.40;101338.09;5379706;26;20000;-69
2024/04/12 02:16:04;;;;;;;;;;;;;;;13.57;88.84;101338.16;5380005;26;20000;-73
2024/04/12 02:18:33;;;;;;;10.80;6.80;;;;;;;13.48;89.18;101324.84;5379678;26;19925;-69
2024/04/12 02:21:05;;;;;;;11.98;7.60;;;;;;;13.57;89.43;101335.56;5379003;26;20011;-68
2024/04/12 02:23:34;;;;;;;11.93;7.45;;;;;;;13.58;89.77;101340.81;5379656;26;20435;-68
2024/04/12 02:26:04;;;;;;;13.93;7.57;;;;;;;13.51;89.97;101327.56;5379223;26;20007;-69
2024/04/12 02:28:29;;;;;;;;;;;;;;;13.52;90.27;101339.69;5379872;26;20036;-69
2024/04/12 02:30:57;;;;;;;16.30;7.60;;;;;;;13.46;90.59;101327.38;5379489;26;20337;-68
2024/04/12 02:33:30;;;;;;;12.15;7.07;;;;;;;13.55;90.59;101337.22;5379657;26;20039;-69
2024/04/12 02:36:16;;;;;;;13.45;7.53;;;;;;;13.23;89.55;101275.47;5379246;26;20004;-69
2024/04/12 02:38:54;;;;;;;11.70;7.82;;;;;;;13.56;89.49;101333.81;5347338;26;20091;-69
2024/04/12 02:41:20;;;;;;;10.50;7.03;;;;;;;13.57;89.02;101326.06;5379520;26;20008;-72
2024/04/12 02:43:52;;;;;;;9.48;7.40;;;;;;;13.47;88.71;101328.25;5379287;26;20019;-71
2024/04/12 02:46:19;;;;;;;11.75;8.13;;;;;;;13.37;88.96;101312.34;5378880;26;20019;-69
2024/04/12 02:48:47;;;;;;;15.07;7.68;;;;;;;13.52;88.29;101327.63;5370343;26;20017;-69
2024/04/12 02:51:14;;;;;;;13.27;8.00;;;;;;;13.26;88.23;101282.47;5374333;26;20741;-68
2024/04/12 02:53:42;;;;;;;13.25;8.30;;;;;;;13.42;88.80;101331.56;5377061;26;20008;-68
2024/04/12 02:56:11;;;;;;;12.52;8.13;;;;;;;13.32;88.51;101323.31;5378680;26;20032;-69
2024/04/12 02:58:44;;;;;;;14.03;8.17;;;;;;;13.23;89.78;101334.19;5379200;26;20420;-69
2024/04/12 03:01:12;;;;;;;17.05;7.85;;;;;;;13.17;90.75;101333.97;5378948;26;20009;-68
2024/04/12 03:03:46;;;;;;;15.48;7.63;;;;;;;13.11;90.63;101319.06;5377405;26;20439;-69
2024/04/12 03:06:17;;;;;;;12.20;7.97;;;;;;;13.05;91.08;101335.22;5357089;26;20435;-69
2024/04/12 03:08:47;;;;;;;17.48;8.35;;;;;;;12.88;91.35;101306.03;5376931;26;20006;-73
2024/04/12 03:11:19;;;;;;;17.42;7.80;;;;;;;12.79;91.94;101293.56;5378985;26;20013;-68
2024/04/12 03:13:45;;;;;;;14.15;8.57;;;;;;;12.78;91.93;101330.69;5373733;26;20012;-69
2024/04/12 03:16:14;;;;;;;13.20;8.10;;;;;;;12.78;92.64;101345.34;5378750;26;20034;-70
2024/04/12 03:18:42;;;;;;;13.98;8.73;;;;;;;12.34;93.88;101301.19;5378307;26;20014;-68
2024/04/12 03:21:08;;;;;;;11.05;8.32;;;;;;;12.66;94.83;101343.13;5378522;26;20008;-72
2024/04/12 03:23:34;;;;;;;14.30;8.75;;;;;;;12.58;95.25;101339.31;5378133;26;20044;-68
2024/04/12 03:26:01;;;;;;;14.05;8.80;;;;;;;12.70;94.76;101352.81;5378251;26;20011;-71
2024/04/12 03:28:30;;;;;;;16.05;8.65;;;;;;;12.77;94.13;101352.25;5376337;26;20325;-69
2024/04/12 03:30:55;;;;;;;13.73;8.70;;;;;;;12.83;93.59;101358.50;5378525;26;20339;-68
2024/04/12 03:33:21;;;;;;;16.23;8.85;;;;;;;12.72;93.88;101353.75;5377957;26;20006;-69
2024/04/12 03:35:47;;;;;;;18.92;8.32;;;;;;;12.75;93.35;101361.66;5378276;26;20514;-68
2024/04/12 03:38:24;;;;;;;20.25;8.80;;;;;;;12.67;92.83;101354.38;5375082;26;20098;-73
2024/04/12 03:40:58;;;;;;;13.55;7.80;;;;;;;12.39;93.04;101366.13;5378163;26;20033;-69
2024/04/12 03:43:27;;;;;;;15.27;8.98;;;;;;;11.96;93.75;101336.63;5378041;26;20046;-71
2024/04/12 03:46:00;;;;;;;18.90;8.93;;;;;;;12.11;94.83;101373.56;5378165;26;20078;-75
2024/04/12 03:48:33;;;;;;;15.40;8.75;;;;;;;11.69;95.19;101338.78;5368907;26;20343;-69
2024/04/12 03:51:06;;;;;;;12.32;8.02;;;;;;;11.73;96.97;101364.88;5367406;26;19993;-69
2024/04/12 03:53:32;;;;;;;12.40;7.82;;;;;;;11.95;96.34;101368.44;5377656;26;20015;-68
2024/04/12 03:55:57;;;;;;;12.93;7.90;;;;;;;12.04;95.47;101370.63;5377742;26;20334;-69
2024/04/12 03:58:24;;;;;;;9.32;7.72;;;;;;;12.15;95.00;101382.34;5378273;26;20000;-71
2024/04/12 04:00:51;;;;;;;14.23;7.78;;;;;;;12.19;94.69;101373.03;5377719;26;20096;-68
2024/04/12 04:03:32;;;;;;;12.63;7.50;;;;;;;11.94;95.64;101384.81;5374729;26;20000;-69
2024/04/12 04:06:05;;;;;;;9.85;8.02;;;;;;;11.92;95.69;101391.63;5367484;26;20632;-68
2024/04/12 04:08:48;;;;;;;12.20;8.05;;;;;;;11.85;95.95;101387.88;5381574;26;20010;-70
2024/04/12 04:11:18;;;;;;;15.00;8.50;;;;;;;11.81;95.80;101376.47;5381589;26;20520;-70
2024/04/12 04:13:46;;;;;;;11.30;8.15;;;;;;;11.79;95.40;101367.75;5381270;26;20431;-67
2024/04/12 04:16:18;;;;;;;19.50;10.60;;;;;;;11.89;96.05;101384.59;5377092;26;20008;-67
2024/04/12 04:18:49;;;;;;;21.13;9.95;;;;;;;11.94;96.70;101398.63;5406273;26;20365;-67
2024/04/12 04:21:15;;;;;;;15.48;8.73;;;;;;;11.73;96.97;101349.34;5374396;26;20023;-72
2024/04/12 04:23:42;;;;;;;15.52;7.80;;;;;;;12.10;97.51;101387.31;5370150;26;20350;-67
2024/04/12 04:26:09;;;;;;;15.30;8.10;;;;;;;11.64;97.07;101323.94;5381280;26;20435;-69
2024/04/12 04:28:35;;;;;;;14.13;8.57;;;;;;;12.00;97.87;101408.44;5406194;26;20000;-67
2024/04/12 04:31:05;;;;;;;13.85;7.97;;;;;;;11.79;98.56;101369.47;5381137;26;20008;-72
2024/04/12 04:33:38;;;;;;;11.85;8.70;;;;;;;12.12;98.39;101408.09;5380817;26;20073;-66
2024/04/12 04:36:11;;;;;;;18.85;10.25;;;;;;;11.98;99.92;101412.63;5381363;26;20000;-70
2024/04/12 04:38:37;;;;;;;16.13;8.95;;;;;;;11.86;100.00;101399.09;5381224;26;20004;-67
2024/04/12 04:41:07;;;;;;;19.60;8.90;;;;;;;11.78;100.00;101371.16;5380993;26;20412;-68
2024/04/12 04:43:36;;;;;;;15.10;7.75;;;;;;;12.21;100.00;101410.19;5381553;26;20076;-69
2024/04/12 04:48:56;;;;;;;9.93;7.53;;;;;;;12.24;100.00;101376.69;5413490;26;19999;-67
2024/04/12 04:51:25;;;;;;;15.88;9.00;;;;;;;12.49;100.00;101408.88;5413569;26;20045;-69
2024/04/12 04:53:52;;;;;;;11.48;8.38;;;;;;;12.61;100.00;101411.97;5413686;26;20011;-66
2024/04/12 04:56:24;;;;;;;15.18;7.85;;;;;;;12.78;100.00;101408.44;5408171;26;19999;-68
2024/04/12 04:58:53;;;;;;;15.43;9.25;;;;;;;12.93;99.61;101405.63;5413962;26;20530;-67
2024/04/12 05:01:24;;;;;;;15.13;8.73;;;;;;;13.06;98.62;101401.81;5413830;26;20010;-71
2024/04/12 05:03:56;;;;;;;15.43;8.13;;;;;;;13.13;98.62;101396.88;5413132;26;20030;-67
2024/04/12 05:06:25;;;;;;;15.90;8.27;;;;;;;13.10;98.20;101395.06;5406424;26;20079;-67
2024/04/12 05:09:00;;;;;;;13.75;7.88;;;;;;;12.94;98.20;101358.13;5413185;26;20314;-67
2024/04/12 05:11:30;;;;;;;13.95;7.82;;;;;;;12.97;98.17;101349.56;5413658;26;20018;-70
2024/04/12 05:13:57;;;;;;;24.58;9.05;;;;;;;13.26;98.18;101397.44;5377716;26;20372;-68
2024/04/12 05:16:23;;;;;;;16.33;7.60;;;;;;;13.19;97.38;101369.50;5396471;26;20007;-68
2024/04/12 05:18:49;;;;;;;19.33;8.20;;;;;;;13.33;97.96;101408.94;5412660;26;20433;-66
2024/04/12 05:21:15;;;;;;;15.68;8.13;;;;;;;13.32;98.77;101406.28;5406099;26;20045;-67
2024/04/12 05:23:41;;;;;;;12.57;8.20;;;;;;;13.38;99.15;101411.78;5412958;26;20072;-66
2024/04/12 05:26:09;;;;;;;11.77;7.97;;;;;;;13.47;99.18;101417.34;5392387;26;20470;-70
2024/04/12 05:28:37;;;;;;;15.30;7.82;;;;;;;13.34;100.00;101397.75;5379856;26;20016;-66
2024/04/12 05:31:11;;;;;;;14.77;8.35;;;;;;;13.49;100.00;101420.00;5380895;26;20028;-66
2024/04/12 05:33:38;;;;;;;10.27;8.32;;;;;;;13.53;100.00;101417.59;5380294;26;20015;-70
2024/04/12 05:36:09;;;;;;;10.38;7.50;;;;;;;13.67;100.00;101419.81;5380216;26;20004;-71
2024/04/12 05:38:37;;;;;;;11.75;8.20;;;;;;;13.77;100.00;101416.78;5380157;26;20000;-67
2024/04/12 05:41:04;;;;;;;16.75;8.93;;;;;;;13.74;100.00;101385.50;5380461;26;20012;-67
2024/04/12 05:43:33;;;;;;;13.25;7.40;;;;;;;13.87;99.66;101410.25;5380370;26;20443;-68
2024/04/12 05:46:00;;;;;;;12.98;7.47;;;;;;;13.98;100.00;101426.22;5380023;26;20070;-66
2024/04/12 05:48:26;;;;;;;16.45;8.05;;;;;;;14.05;100.00;101410.06;5380622;26;20012;-67
2024/04/12 05:50:56;;;;;;;20.02;8.48;;;;;;;14.22;100.00;101432.34;5380343;26;20000;-66
2024/04/12 05:53:29;;;;;;;16.33;8.40;;;;;;;14.36;100.00;101419.00;5380397;26;20054;-67
2024/04/12 05:58:41;;;;;;;14.02;8.13;;;;;;;14.63;99.54;101423.41;5378666;26;20022;-66
2024/04/12 06:01:09;;;;;;;12.35;8.35;;;;;;;14.70;98.22;101415.94;5379843;26;20004;-70
2024/04/12 06:03:42;;;;;;;12.40;7.82;;;;;;;14.84;97.67;101429.41;5380271;26;20026;-68
2024/04/12 06:06:08;;;;;;;10.98;8.02;;;;;;;14.91;98.17;101408.81;5376203;26;20000;-67
2024/04/12 06:08:37;;;;;;;15.02;8.13;;;;;;;15.19;97.91;101427.13;5368334;26;20004;-68
2024/04/12 06:11:03;;;;;;;12.48;8.32;;;;;;;15.27;97.06;101411.75;5379843;26;20081;-70
2024/04/12 06:13:29;;;;;;;12.80;7.85;;;;;;;15.01;96.54;101351.09;5379872;26;20081;-69
2024/04/12 06:15:55;;;;;;;12.75;7.43;;;;;;;15.50;98.33;101429.84;5379622;26;20330;-66
2024/04/12 06:18:21;;;;;;;10.90;7.78;;;;;;;15.55;97.69;101420.44;5380092;26;20004;-68
2024/04/12 06:20:48;;;;;;;12.02;7.30;;;;;;;15.70;96.27;101414.84;5379531;26;20008;-68
2024/04/12 06:23:14;;;;;;;13.90;7.80;;;;;;;15.83;96.92;101423.97;5378240;26;20084;-71
2024/04/12 06:25:44;;;;;;;9.30;7.53;;;;;;;15.90;98.74;101412.91;5379543;26;20000;-69
2024/04/12 06:28:14;;;;;;;13.00;7.55;;;;;;;16.00;97.62;101414.94;5375331;26;20011;-71
2024/04/12 06:30:44;;;;;;;11.10;7.75;;;;;;;15.93;98.69;101391.28;5376686;26;20010;-67
2024/04/12 06:33:12;;;;;;;10.82;7.43;;;;;;;16.16;97.98;101417.97;5374987;26;19996;-67
2024/04/12 06:35:40;;;;;;;14.10;7.20;;;;;;;16.32;97.02;101416.72;5376810;26;20011;-70
2024/04/12 06:38:08;;;;;;;11.48;7.13;;;;;;;16.55;95.27;101424.28;5376016;26;20001;-68
2024/04/12 06:40:37;;;;;;;10.55;7.38;;;;;;;16.68;96.55;101405.53;5347171;26;19996;-68
2024/04/12 06:43:06;;;;;;;9.40;6.63;;;;;;;16.89;95.22;101404.34;5376313;26;20494;-71
2024/04/12 06:45:41;;;;;;;8.95;6.63;;;;;;;17.09;93.57;101418.81;5347236;26;20581;-68
2024/04/12 06:48:10;;;;;;;10.20;7.05;;;;;;;17.17;95.03;101405.06;5375951;26;20006;-69
2024/04/12 06:50:38;;;;;;;10.32;6.55;;;;;;;17.34;94.20;101405.50;5376461;26;19997;-72
2024/04/12 06:53:08;;;;;;;11.00;7.45;;;;;;;17.47;93.94;101402.34;5376386;26;20032;-70
2024/04/12 06:55:45;;;;;;;10.63;7.00;;;;;;;17.37;95.21;101377.75;5376388;26;20011;-70
2024/04/12 06:58:17;;;;;;;12.27;7.88;;;;;;;17.56;95.01;101409.50;5376709;26;20011;-67
2024/04/12 07:00:48;;;;;;;12.02;6.82;;;;;;;17.83;92.63;101410.97;5378964;26;20000;-68
2024/04/12 07:03:16;;;;;;;11.73;6.80;;;;;;;18.07;89.58;101408.06;5369842;26;20036;-69
2024/04/12 07:05:47;;;;;;;10.70;7.10;;;;;;;18.18;89.47;101403.94;5376158;26;20078;-68
2024/04/12 07:08:16;;;;;;;13.52;7.15;;;;;;;18.35;87.39;101412.09;5379101;26;20012;-69
2024/04/12 07:10:48;;;;;;;13.52;7.10;;;;;;;18.14;87.22;101381.16;5379474;26;20000;-68
2024/04/12 07:13:27;;;;;;;16.48;6.88;;;;;;;18.25;88.51;101397.09;5379048;26;20019;-71
2024/04/12 07:15:55;;;;;;;16.38;6.75;;;;;;;18.42;88.86;101402.66;5379518;26;20008;-69
2024/04/12 07:18:42;;;;;;;13.60;6.72;;;;;;;18.69;89.32;101412.75;5378942;26;20000;-73
2024/04/12 07:21:18;;;;;;;12.45;6.75;;;;;;;18.92;86.30;101405.34;5346516;26;20003;-70
2024/04/12 07:23:46;;;;;;;13.05;6.00;;;;;;;19.12;87.84;101404.81;5375469;26;20000;-67
2024/04/12 07:26:27;;;;;;;8.13;6.28;;;;;;;19.30;85.68;101403.34;5375814;26;20011;-67
2024/04/12 07:29:01;;;;;;;9.35;6.15;;;;;;;19.45;83.11;101387.00;5349424;26;19996;-67
2024/04/12 07:31:34;;;;;;;12.25;6.88;;;;;;;19.10;85.50;101306.19;5376206;26;19996;-66
2024/04/12 07:34:05;;;;;;;10.75;6.57;;;;;;;19.82;86.91;101398.88;5376168;26;20008;-68
2024/04/12 07:36:32;;;;;;;9.18;5.68;;;;;;;19.96;86.48;101392.97;5376469;26;20530;-68
2024/04/12 07:39:05;;;;;;;12.45;6.28;;;;;;;20.02;88.04;101387.81;5377773;26;20036;-72
2024/04/12 07:41:37;;;;;;;9.95;7.05;;;;;;;20.19;85.00;101395.91;5349993;26;19992;-68
2024/04/12 07:44:04;;;;;;;11.13;6.10;;;;;;;20.06;85.09;101352.91;5379617;26;20000;-67
2024/04/12 07:46:35;;;;;;;10.52;6.32;;;;;;;20.38;83.85;101391.75;5379243;26;20011;-70
2024/04/12 07:49:07;;;;;;;12.57;6.20;;;;;;;20.49;81.04;101391.88;5379460;26;19996;-68
2024/04/12 07:51:39;;;;;;;13.77;6.07;;;;;;;20.72;77.15;101383.38;5371779;26;20070;-69
2024/04/12 07:54:11;;;;;;;12.15;6.22;;;;;;;20.85;76.53;101386.13;5347970;26;20403;-71
2024/04/12 07:56:43;;;;;;;8.40;6.30;;;;;;;20.95;78.44;101394.09;5344418;26;20005;-68
2024/04/12 07:59:17;;;;;;;11.18;5.60;;;;;;;21.08;77.04;101385.44;5344704;26;19997;-69
2024/04/12 08:01:45;;;;;;;13.68;5.63;;;;;;;21.14;72.85;101364.47;5317100;26;19997;-71
2024/04/12 08:04:36;;;;;;;11.75;5.72;;;;;;;21.27;72.50;101359.31;5287026;26;20439;-68
2024/04/12 08:07:06;;;;;;;7.25;5.15;;;;;;;21.47;69.27;101356.81;5344236;26;19993;-68
2024/04/12 08:09:40;;;;;;;9.95;5.07;;;;;;;21.58;69.51;101351.66;5344105;26;19996;-67
2024/04/12 08:12:23;;;;;;;13.52;5.38;;;;;;;21.89;71.99;101362.34;5344459;26;20366;-73
2024/04/12 08:14:52;;;;;;;9.25;5.40;;;;;;;21.93;64.34;101316.78;5295054;26;19997;-70
2024/04/12 08:17:25;;;;;;;10.38;4.55;;;;;;;22.22;61.99;101347.53;5344373;26;20033;-66
2024/04/12 08:19:55;;;;;;;13.40;4.65;;;;;;;22.37;58.96;101341.44;5344177;26;20000;-70
2024/04/12 08:22:25;;;;;;;13.07;4.90;;;;;;;22.56;57.30;101352.91;5343868;26;20001;-75
2024/04/12 08:24:54;;;;;;;15.23;5.20;;;;;;;22.74;56.64;101359.94;5344155;26;20008;-72
2024/04/12 08:27:24;;;;;;;10.97;5.00;;;;;;;22.81;55.43;101352.94;5345615;26;20009;-69
2024/04/12 08:29:52;;;;;;;11.23;4.50;;;;;;;22.88;54.28;101349.41;5347190;26;20004;-72
2024/04/12 08:32:27;;;;;;;11.90;4.85;;;;;;;22.91;57.13;101357.31;5347336;26;20363;-69
2024/04/12 08:34:55;;;;;;;8.93;4.82;;;;;;;23.03;54.21;101349.44;5347339;26;20391;-71
2024/04/12 08:37:30;;;;;;;6.78;4.30;;;;;;;22.70;54.98;101280.09;5346498;26;20009;-75
2024/04/12 08:39:57;;;;;;;11.88;4.93;;;;;;;23.19;53.16;101338.88;5346386;26;20066;-69
2024/04/12 08:42:28;;;;;;;11.23;4.28;;;;;;;23.34;52.59;101335.34;5365656;26;20036;-69
2024/04/12 08:45:12;;;;;;;11.35;4.43;;;;;;;23.43;53.34;101338.84;5380922;26;20008;-69
2024/04/12 08:47:52;;;;;;;12.18;4.75;;;;;;;23.61;49.91;101333.53;5381679;26;20004;-69
2024/04/12 08:50:24;;;;;;;11.68;4.90;;;;;;;23.65;50.23;101312.44;5381054;26;19996;-68
2024/04/12 08:52:53;;;;;;;17.55;5.13;;;;;;;23.73;47.95;101317.69;5381640;26;20042;-69
2024/04/12 08:55:20;;;;;;;8.70;4.88;;;;;;;23.83;48.92;101323.78;5381795;26;20000;-68
2024/04/12 08:57:47;;;;;;;7.25;4.53;;;;;;;23.90;48.83;101320.22;5381937;26;20029;-73
2024/04/12 09:00:21;;;;;;;16.63;4.93;;;;;;;24.04;50.33;101318.44;5382028;26;20004;-71
2024/04/12 09:02:58;;;;;;;14.85;5.22;;;;;;;24.10;48.70;101314.00;5380305;26;20000;-69
2024/04/12 09:05:25;;;;;;;10.85;4.60;;;;;;;24.26;45.83;101301.59;5380838;26;20081;-70
2024/04/12 09:07:56;;;;;;;15.88;5.57;;;;;;;24.40;45.94;101310.31;5380825;26;20073;-71
2024/04/12 09:10:22;;;;;;;14.38;5.40;;;;;;;24.54;45.48;101311.06;5380063;26;20019;-72
2024/04/12 09:12:47;;;;;;;8.55;4.25;;;;;;;24.60;45.30;101293.41;5363481;26;20020;-70
2024/04/12 09:15:23;;;;;;;12.05;5.13;;;;;;;24.70;44.72;101297.78;5378614;26;19996;-67
2024/04/12 09:18:13;;;;;;;11.80;4.57;;;;;;;24.78;43.26;101292.44;5376587;26;20077;-68
2024/04/12 09:20:38;;;;;;;;;;;;;;;24.86;41.40;101293.22;5379171;26;20011;-71
2024/04/12 09:23:14;;;;;;;8.75;5.25;;;;;;;24.84;43.13;101293.25;5380632;26;19925;-70
2024/04/12 09:25:45;;;;;;;10.57;5.30;;;;;;;24.91;40.82;101290.53;5379129;26;20000;-70
2024/04/12 09:28:16;;;;;;;9.70;4.60;;;;;;;25.02;41.28;101273.72;5376754;26;20010;-69
2024/04/12 09:33:28;;;;;;;13.50;5.20;;;;;;;25.41;41.19;101286.53;5381560;26;20069;-68
2024/04/12 09:36:04;;;;;;;6.20;4.25;;;;;;;25.40;40.61;101262.78;5381371;26;19996;-72
2024/04/12 09:38:31;;;;;;;7.72;4.43;;;;;;;25.67;39.48;101285.31;5381236;26;20315;-74
2024/04/12 09:41:03;;;;;;;9.45;4.75;;;;;;;25.70;41.51;101292.38;5379545;26;20000;-70
2024/04/12 09:43:36;;;;;;;9.18;4.35;;;;;;;25.94;39.22;101284.06;5380902;26;20007;-74
2024/04/12 09:46:09;;;;;;;16.70;4.82;;;;;;;26.08;39.65;101281.28;5349034;26;20012;-73
2024/04/12 10:38:34;;;;;;;9.02;3.97;;;;;;;26.52;36.13;101243.50;5379364;26;20078;-72
2024/04/12 10:41:03;;;;;;;7.93;4.00;;;;;;;26.61;36.34;101222.19;5379103;26;20004;-71
2024/04/12 10:43:35;;;;;;;5.47;3.55;;;;;;;26.62;35.44;101232.75;5379895;26;20001;-72
2024/04/12 10:46:04;;;;;;;8.82;3.70;;;;;;;26.64;35.05;101225.66;5378642;26;20049;-72
2024/04/12 10:48:30;;;;;;;6.07;3.55;;;;;;;26.43;34.76;101186.28;5379346;26;20012;-73
2024/04/12 10:50:56;;;;;;;11.65;4.65;;;;;;;26.82;34.98;101225.34;5379130;26;20015;-71
2024/04/12 10:53:21;;;;;;;12.43;4.20;;;;;;;26.91;33.90;101214.59;5378996;26;20011;-72
2024/04/12 10:55:47;;;;;;;7.80;3.60;;;;;;;27.41;33.42;101241.88;5376928;26;20095;-74
2024/04/12 10:58:14;;;;;;;8.20;3.92;;;;;;;27.42;36.18;101198.56;5378844;26;20001;-71
2024/04/12 11:00:47;;;;;;;8.35;4.22;;;;;;;27.69;32.79;101212.13;5378624;26;20001;-74
2024/04/12 11:03:23;;;;;;;6.68;3.95;;;;;;;27.43;33.68;101147.28;5379389;26;20038;-72
2024/04/12 11:05:50;;;;;;;11.05;4.00;;;;;;;27.47;33.92;101195.81;5358342;26;20015;-71
2024/04/12 11:08:15;;;;;;;7.65;4.28;;;;;;;27.19;34.49;101214.94;5378913;26;20004;-68
2024/04/12 11:10:54;;;;;;;10.50;3.95;;;;;;;26.89;35.24;101230.53;5378738;26;20459;-71
2024/04/12 11:13:35;;;;;;;11.50;4.00;;;;;;;27.01;35.30;101215.31;5373871;26;20039;-72
2024/04/12 11:32:33;;;;;;;12.88;4.28;;;;;;;26.75;35.28;101185.75;5382172;26;20015;-73
2024/04/12 11:34:59;;;;;;;7.70;4.30;;;;;;;27.18;35.77;101204.34;5382285;26;20389;-73
2024/04/12 11:37:24;;;;;;;8.68;4.10;;;;;;;27.49;35.18;101207.25;5381302;26;20407;-75
2024/04/12 11:39:52;;;;;;;9.15;4.20;;;;;;;27.71;36.33;101181.09;5381949;26;20004;-75
2024/04/12 11:42:18;;;;;;;9.13;4.07;;;;;;;27.85;33.54;101185.22;5381242;26;20024;-70
2024/04/12 11:44:47;;;;;;;7.18;3.97;;;;;;;28.06;34.14;101189.16;5382062;26;20077;-73
2024/04/12 11:47:15;;;;;;;;;;;;;;;28.25;33.29;101185.16;5380689;26;20012;-73
2024/04/12 11:49:45;;;;;;;6.18;3.80;;;;;;;28.14;33.28;101181.00;5381516;26;19958;-74
2024/04/12 11:52:17;;;;;;;14.30;3.80;;;;;;;27.77;34.12;101185.41;5381591;26;20412;-71
2024/04/12 11:54:51;;;;;;;9.00;4.30;;;;;;;27.64;35.08;101183.94;5351261;26;20467;-72
2024/04/12 11:57:19;;;;;;;10.75;4.07;;;;;;;27.93;35.13;101167.34;5381169;26;20016;-73
2024/04/12 11:59:46;;;;;;;6.55;4.07;;;;;;;28.15;34.46;101178.34;5381368;26;20078;-74
2024/04/12 12:02:14;;;;;;;9.52;3.60;;;;;;;27.74;34.29;101178.41;5381382;26;20070;-73
2024/04/12 12:04:41;;;;;;;14.00;4.20;;;;;;;27.53;34.25;101179.75;5381497;26;20362;-73
2024/04/12 12:07:10;;;;;;;7.93;3.92;;;;;;;27.77;35.36;101177.44;5380842;26;20416;-72
2024/04/12 12:09:39;;;;;;;8.07;3.70;;;;;;;28.01;34.44;101165.34;5381823;26;20004;-74
2024/04/12 12:12:12;;;;;;;9.80;4.00;;;;;;;28.09;35.46;101165.22;5381109;26;20004;-73
2024/04/12 12:14:41;;;;;;;8.75;4.32;;;;;;;28.13;33.55;101156.25;5381218;26;20069;-73
2024/04/12 12:17:09;;;;;;;8.77;4.30;;;;;;;28.40;33.91;101162.63;5381196;26;20000;-70
2024/04/12 12:19:36;;;;;;;9.18;3.88;;;;;;;28.57;35.02;101159.53;5379741;26;20096;-72
2024/04/12 12:22:02;;;;;;;8.00;3.97;;;;;;;28.50;33.53;101128.75;5375303;26;20328;-72
2024/04/12 12:24:29;;;;;;;11.90;3.83;;;;;;;28.66;32.62;101138.91;5357333;26;20075;-71
2024/04/12 12:26:55;;;;;;;6.53;3.97;;;;;;;28.76;32.87;101150.19;5380232;26;20070;-72
2024/04/12 12:29:21;;;;;;;7.68;3.28;;;;;;;28.81;33.07;101145.63;5380409;26;20015;-72
2024/04/12 12:31:48;;;;;;;7.93;4.03;;;;;;;28.99;33.38;101141.56;5379724;26;20004;-72
2024/04/12 12:34:14;;;;;;;7.40;3.65;;;;;;;28.82;31.74;101136.75;5371256;26;20039;-75
2024/04/12 12:36:41;;;;;;;6.43;3.63;;;;;;;28.70;33.11;101137.97;5372111;26;20001;-73
2024/04/12 12:39:09;;;;;;;7.72;3.70;;;;;;;28.84;31.97;101140.22;5372643;26;20319;-75
2024/04/12 12:41:35;;;;;;;7.03;3.85;;;;;;;28.96;31.98;101144.31;5378280;26;20081;-73
2024/04/12 12:44:05;;;;;;;8.52;3.85;;;;;;;29.13;33.30;101138.50;5367773;26;20001;-71
2024/04/12 12:46:31;;;;;;;9.05;3.47;;;;;;;29.01;32.79;101139.72;5375786;26;20322;-72